GMFO

Angads Airport

Oujda, Morocco
METAR GMFO 191000Z 31006KT 250V040 9999 FEW026 SCT100 28/18 Q1022 NOSIG
Observed Flight Rules
Sep-19 @ 10:00 UTC (an hour ago) Visual Flight Rules
Wind Visibility Clouds
310° at 6 knots 10,000+ meters
  • Few at 2,600' AGL
  • Scattered at 10,000' AGL
Temperatures Readings
Current 28°C / 82°F
Dewpoint 18°C / 64°F
Humidity 55%
Altimeter 30.18" Hg
Pressure 1022 hPa
Elevation 470
METAR GMFO 191000Z 31006KT 250V040 9999 FEW026 SCT100 28/18 Q1022 NOSIG
Observed Flight Rules
Sep-19 @ 10:00 UTC
(an hour ago)
VFR
Wind Visibility
310° at 6 knots 10,000+ meters
Clouds
  • Few at 2,600' AGL
  • Scattered at 10,000' AGL
Temperature Dewpoint
28°C / 82°F 18°C / 64°F
Humidity Altimeter Pressure
55% 30.18" Hg 1022 hPa